createdAt,value
2018-06-01T00:02:17.931Z,99360.23
2018-06-01T00:04:45.395Z,99357.48
2018-06-01T00:07:12.905Z,99356.95
2018-06-01T00:09:40.396Z,99356.23
2018-06-01T00:12:07.955Z,99357.37
2018-06-01T00:14:35.524Z,99357.07
2018-06-01T00:17:03.092Z,99359.09
2018-06-01T00:19:30.636Z,99361.67
2018-06-01T00:21:58.164Z,99357.22
2018-06-01T00:24:25.631Z,99357.66
2018-06-01T00:26:53.129Z,99358.94
2018-06-01T00:29:20.609Z,99352.52
2018-06-01T00:31:48.443Z,99353.96
2018-06-01T00:34:15.924Z,99345.00
2018-06-01T00:36:43.405Z,99351.72
2018-06-01T00:39:10.903Z,99349.72
2018-06-01T00:41:38.375Z,99349.94
2018-06-01T00:44:05.940Z,99350.05
2018-06-01T00:46:33.432Z,99358.72
2018-06-01T00:49:00.930Z,99353.98
2018-06-01T00:51:28.447Z,99356.80
2018-06-01T00:53:55.912Z,99359.69
2018-06-01T00:56:23.382Z,99357.86
2018-06-01T00:58:50.875Z,99356.11
2018-06-01T01:01:18.364Z,99353.81
2018-06-01T01:03:45.905Z,99351.74
2018-06-01T01:06:13.419Z,99350.12
2018-06-01T01:08:40.887Z,99335.72
2018-06-01T01:11:08.355Z,99338.21
2018-06-01T01:13:36.251Z,99338.89
2018-06-01T01:16:03.737Z,99341.42
2018-06-01T01:18:31.216Z,99339.53
2018-06-01T01:20:58.701Z,99339.40
2018-06-01T01:23:26.197Z,99345.02
2018-06-01T01:25:53.678Z,99344.13
2018-06-01T01:28:21.160Z,99343.50
2018-06-01T01:30:49.897Z,99341.47
2018-06-01T01:33:17.363Z,99346.27
2018-06-01T01:35:44.833Z,99339.15
2018-06-01T01:38:12.294Z,99345.25
2018-06-01T01:40:39.768Z,99341.56
2018-06-01T01:43:07.255Z,99334.89
2018-06-01T01:45:34.727Z,99330.29
2018-06-01T01:48:02.219Z,99326.67
2018-06-01T01:50:29.718Z,99328.98
2018-06-01T01:52:57.225Z,99332.53
2018-06-01T01:55:24.707Z,99325.97
2018-06-01T01:57:52.175Z,99323.03
2018-06-01T02:00:19.630Z,99329.70
2018-06-01T02:02:47.108Z,99328.81
2018-06-01T02:05:14.610Z,99329.22
2018-06-01T02:07:42.103Z,99331.37
2018-06-01T02:10:09.564Z,99329.63
2018-06-01T02:12:37.112Z,99323.67
2018-06-01T02:15:04.584Z,99327.05
2018-06-01T02:17:33.309Z,99327.81
2018-06-01T02:20:00.781Z,99334.49
2018-06-01T02:22:28.253Z,99334.25
2018-06-01T02:24:55.782Z,99329.27
2018-06-01T02:27:23.295Z,99333.92
2018-06-01T02:29:50.779Z,99341.74
2018-06-01T02:32:18.250Z,99342.74
2018-06-01T02:34:45.741Z,99346.34
2018-06-01T02:37:13.214Z,99352.15
2018-06-01T02:39:41.526Z,99351.23
2018-06-01T02:42:09.004Z,99354.84
2018-06-01T02:44:36.475Z,99357.09
2018-06-01T02:47:03.960Z,99362.08
2018-06-01T02:49:31.443Z,99360.52
2018-06-01T02:51:58.904Z,99364.05
2018-06-01T02:54:26.394Z,99361.14
2018-06-01T02:56:53.872Z,99361.98
2018-06-01T02:59:21.345Z,99370.41
2018-06-01T03:01:48.852Z,99379.69
2018-06-01T03:04:16.377Z,99389.38
2018-06-01T03:06:55.617Z,99387.36
2018-06-01T03:09:23.083Z,99377.09
2018-06-01T03:11:50.679Z,99385.59
2018-06-01T03:14:18.222Z,99385.00
2018-06-01T03:16:45.724Z,99389.44
2018-06-01T03:19:13.895Z,99392.63
2018-06-01T03:21:41.380Z,99393.97
2018-06-01T03:24:08.856Z,99393.20
2018-06-01T03:26:36.328Z,99398.99
2018-06-01T03:29:03.851Z,99401.31
2018-06-01T03:31:31.327Z,99404.69
2018-06-01T03:33:58.840Z,99406.30
2018-06-01T03:36:26.298Z,99407.95
2018-06-01T03:38:53.791Z,99408.65
2018-06-01T03:41:21.303Z,99402.80
2018-06-01T03:43:48.845Z,99407.41
2018-06-01T03:46:16.391Z,99410.59
2018-06-01T03:48:43.903Z,99410.62
2018-06-01T03:51:11.392Z,99410.69
2018-06-01T03:53:38.871Z,99401.27
2018-06-01T03:56:06.366Z,99412.88
2018-06-01T03:58:33.892Z,99418.77
2018-06-01T04:01:01.422Z,99415.30
2018-06-01T04:03:28.919Z,99418.75
2018-06-01T04:05:56.392Z,99422.37
2018-06-01T04:08:23.888Z,99426.20
2018-06-01T04:10:51.408Z,99415.82
2018-06-01T04:13:18.963Z,99426.12
2018-06-01T04:15:47.799Z,99433.19
2018-06-01T04:18:15.277Z,99435.28
2018-06-01T04:20:42.825Z,99438.83
2018-06-01T04:23:10.311Z,99444.31
2018-06-01T04:25:37.827Z,99449.42
2018-06-01T04:28:05.324Z,99449.56
2018-06-01T04:30:32.891Z,99447.58
2018-06-01T04:33:00.372Z,99448.36
2018-06-01T04:35:27.839Z,99446.49
2018-06-01T04:37:55.340Z,99450.05
2018-06-01T04:40:22.817Z,99454.80
2018-06-01T04:42:50.276Z,99457.11
2018-06-01T04:45:18.262Z,99456.78
2018-06-01T04:47:45.795Z,99457.05
2018-06-01T04:50:14.027Z,99457.43
2018-06-01T04:52:42.183Z,99458.92
2018-06-01T04:55:09.663Z,99453.95
2018-06-01T04:57:37.119Z,99455.64
2018-06-01T05:00:04.618Z,99450.88
2018-06-01T05:02:32.083Z,99454.25
2018-06-01T05:04:59.627Z,99449.62
2018-06-01T05:07:27.204Z,99448.94
2018-06-01T05:09:54.698Z,99456.22
2018-06-01T05:12:22.236Z,99459.00
2018-06-01T05:14:49.761Z,99467.52
2018-06-01T05:17:17.216Z,99464.52
2018-06-01T05:19:44.693Z,99467.72
2018-06-01T05:22:12.177Z,99467.54
2018-06-01T05:24:39.637Z,99476.81
2018-06-01T05:27:07.128Z,99474.87
2018-06-01T05:29:34.679Z,99469.94
2018-06-01T05:32:02.759Z,99473.27
2018-06-01T05:34:30.246Z,99466.50
2018-06-01T05:36:57.713Z,99474.62
2018-06-01T05:39:26.625Z,99476.88
2018-06-01T05:41:54.183Z,99471.71
2018-06-01T05:44:21.694Z,99483.61
2018-06-01T05:46:49.187Z,99473.41
2018-06-01T05:49:16.683Z,99475.70
2018-06-01T05:51:44.144Z,99479.91
2018-06-01T05:54:11.633Z,99482.79
2018-06-01T05:56:39.170Z,99485.74
2018-06-01T05:59:06.647Z,99487.04
2018-06-01T06:01:34.111Z,99488.67
2018-06-01T06:04:01.594Z,99488.66
2018-06-01T06:06:29.068Z,99491.57
2018-06-01T06:08:56.539Z,99501.05
2018-06-01T06:11:24.035Z,99501.10
2018-06-01T06:13:51.517Z,99489.17
2018-06-01T06:16:18.978Z,99501.88
2018-06-01T06:18:46.450Z,99498.76
2018-06-01T06:21:14.394Z,99501.12
2018-06-01T06:23:41.960Z,99513.66
2018-06-01T06:26:09.475Z,99513.55
2018-06-01T06:28:36.949Z,99513.37
2018-06-01T06:31:04.435Z,99520.87
2018-06-01T06:33:31.927Z,99517.70
2018-06-01T06:35:59.406Z,99521.18
2018-06-01T06:38:26.902Z,99528.24
2018-06-01T06:40:54.410Z,99526.95
2018-06-01T06:43:21.948Z,99525.99
2018-06-01T06:45:49.429Z,99528.32
2018-06-01T06:48:16.923Z,99537.41
2018-06-01T06:50:44.424Z,99539.20
2018-06-01T06:53:11.888Z,99535.89
2018-06-01T06:55:39.364Z,99528.87
2018-06-01T06:58:06.833Z,99528.77
2018-06-01T07:00:34.328Z,99528.95
2018-06-01T07:03:01.876Z,99525.49
2018-06-01T07:05:29.378Z,99527.05
2018-06-01T07:07:56.864Z,99531.13
2018-06-01T07:10:24.333Z,99535.37
2018-06-01T07:12:51.811Z,99533.05
2018-06-01T07:15:20.974Z,99537.47
2018-06-01T07:17:48.453Z,99537.59
2018-06-01T07:20:15.948Z,99554.77
2018-06-01T07:22:43.455Z,99545.27
2018-06-01T07:25:10.963Z,99544.97
2018-06-01T07:27:38.483Z,99547.28
2018-06-01T07:30:05.939Z,99546.39
2018-06-01T07:32:33.491Z,99544.77
2018-06-01T07:35:01.230Z,99544.31
2018-06-01T07:37:28.692Z,99547.67
2018-06-01T07:39:56.196Z,99547.73
2018-06-01T07:42:23.694Z,99554.11
2018-06-01T07:44:51.194Z,99555.47
2018-06-01T07:47:18.680Z,99544.66
2018-06-01T07:49:46.167Z,99542.14
2018-06-01T07:52:13.671Z,99547.32
2018-06-01T07:54:41.475Z,99546.89
2018-06-01T07:57:08.997Z,99548.55
2018-06-01T07:59:36.472Z,99553.97
2018-06-01T08:02:03.952Z,99547.80
2018-06-01T08:04:31.649Z,99552.77
2018-06-01T08:06:59.215Z,99546.30
2018-06-01T08:09:26.774Z,99545.57
2018-06-01T08:11:54.275Z,99545.95
2018-06-01T08:14:21.759Z,99546.06
2018-06-01T08:16:49.774Z,99554.23
2018-06-01T08:19:17.231Z,99544.37
2018-06-01T08:21:44.764Z,99541.86
2018-06-01T08:24:12.278Z,99533.66
2018-06-01T08:26:39.808Z,99540.50
2018-06-01T08:29:07.302Z,99539.30
2018-06-01T08:31:34.790Z,99541.28
2018-06-01T08:34:02.317Z,99547.53
2018-06-01T08:36:29.802Z,99550.02
2018-06-01T08:38:57.266Z,99538.36
2018-06-01T08:41:24.723Z,99546.42
2018-06-01T08:43:52.237Z,99545.44
2018-06-01T08:46:19.701Z,99543.48
2018-06-01T08:48:47.171Z,99538.75
2018-06-01T08:51:14.646Z,99540.51
2018-06-01T08:53:42.148Z,99541.85
2018-06-01T08:56:09.639Z,99540.59
2018-06-01T08:58:37.128Z,99545.55
2018-06-01T09:01:04.596Z,99547.27
2018-06-01T09:03:32.094Z,99546.28
2018-06-01T09:06:00.427Z,99547.97
2018-06-01T09:08:27.901Z,99550.23
2018-06-01T09:10:55.374Z,99548.05
2018-06-01T09:13:22.839Z,99551.53
2018-06-01T09:15:50.363Z,99554.98
2018-06-01T09:18:17.852Z,99552.16
2018-06-01T09:20:45.316Z,99554.23
2018-06-01T09:23:12.788Z,99545.25
2018-06-01T09:25:40.255Z,99549.34
2018-06-01T09:28:07.768Z,99544.86
2018-06-01T09:30:35.207Z,99542.57
2018-06-01T09:33:02.664Z,99556.62
2018-06-01T09:35:30.187Z,99559.32
2018-06-01T09:37:57.640Z,99566.45
2018-06-01T09:40:25.107Z,99567.00
2018-06-01T09:42:52.611Z,99579.31
2018-06-01T09:45:20.076Z,99588.03
2018-06-01T09:47:47.531Z,99589.85
2018-06-01T09:50:15.018Z,99602.04
2018-06-01T09:52:42.518Z,99606.02
2018-06-01T09:55:10.015Z,99614.22
2018-06-01T09:57:37.506Z,99610.63
2018-06-01T10:00:04.970Z,99618.91
2018-06-01T10:02:32.421Z,99618.50
2018-06-01T10:04:59.885Z,99612.02
2018-06-01T10:07:27.353Z,99614.38
2018-06-01T10:10:00.492Z,99600.95
2018-06-01T10:12:27.947Z,99591.87
2018-06-01T10:14:55.400Z,99603.84
2018-06-01T10:17:22.891Z,99604.50
2018-06-01T10:19:51.932Z,99591.88
2018-06-01T10:22:19.400Z,99595.25
2018-06-01T10:24:46.943Z,99608.22
2018-06-01T10:27:14.414Z,99615.52
2018-06-01T10:29:41.905Z,99615.62
2018-06-01T10:32:09.378Z,99613.84
2018-06-01T10:34:36.862Z,99611.87
2018-06-01T10:37:04.368Z,99611.27
2018-06-01T10:39:31.925Z,99614.02
2018-06-01T10:41:59.431Z,99614.78
2018-06-01T10:44:26.942Z,99608.66
2018-06-01T10:46:54.441Z,99607.33
2018-06-01T10:49:21.912Z,99604.34
2018-06-01T10:51:49.360Z,99617.28
2018-06-01T10:54:16.842Z,99609.53
2018-06-01T10:56:44.328Z,99600.66
2018-06-01T10:59:11.830Z,99599.14
2018-06-01T11:01:39.363Z,99595.89
2018-06-01T11:04:06.811Z,99596.31
2018-06-01T11:06:34.307Z,99597.05
2018-06-01T11:09:01.821Z,99597.58
2018-06-01T11:11:29.299Z,99597.57
2018-06-01T11:13:56.750Z,99600.61
2018-06-01T11:16:24.223Z,99588.33
2018-06-01T11:18:51.681Z,99589.94
2018-06-01T11:21:19.189Z,99588.20
2018-06-01T11:23:46.667Z,99599.11
2018-06-01T11:26:14.144Z,99593.48
2018-06-01T11:28:41.683Z,99598.48
2018-06-01T11:31:09.191Z,99592.16
2018-06-01T11:33:36.659Z,99589.43
2018-06-01T11:36:04.141Z,99589.47
2018-06-01T11:38:31.640Z,99586.62
2018-06-01T11:40:59.112Z,99586.47
2018-06-01T11:43:26.584Z,99584.01
2018-06-01T11:45:54.067Z,99580.36
2018-06-01T11:48:21.527Z,99582.33
2018-06-01T11:50:48.980Z,99561.70
2018-06-01T11:53:16.520Z,99566.20
2018-06-01T11:55:43.985Z,99564.06
2018-06-01T11:58:11.465Z,99577.98
2018-06-01T12:00:38.948Z,99560.82
2018-06-01T12:03:06.454Z,99567.25
2018-06-01T12:05:33.898Z,99567.41
2018-06-01T12:08:01.364Z,99563.69
2018-06-01T12:10:28.824Z,99564.38
2018-06-01T12:12:56.307Z,99564.21
2018-06-01T12:15:23.829Z,99562.16
2018-06-01T12:17:51.297Z,99565.30
2018-06-01T12:20:18.760Z,99566.19
2018-06-01T12:22:46.258Z,99565.05
2018-06-01T12:25:13.728Z,99564.33
2018-06-01T12:27:41.202Z,99563.30
2018-06-01T12:30:08.791Z,99557.29
2018-06-01T12:32:36.312Z,99555.62
2018-06-01T12:35:03.780Z,99551.45
2018-06-01T12:37:31.323Z,99552.66
2018-06-01T12:39:58.759Z,99553.67
2018-06-01T12:42:26.233Z,99552.22
2018-06-01T12:44:53.710Z,99559.48
2018-06-01T12:47:21.155Z,99557.39
2018-06-01T12:49:48.631Z,99558.02
2018-06-01T12:52:16.143Z,99554.96
2018-06-01T12:54:43.618Z,99558.98
2018-06-01T12:57:11.079Z,99555.34
2018-06-01T12:59:38.568Z,99554.16
2018-06-01T13:02:06.052Z,99557.19
2018-06-01T13:04:33.519Z,99562.18
2018-06-01T13:07:01.044Z,99554.50
2018-06-01T13:09:28.502Z,99556.94
2018-06-01T13:11:56.056Z,99565.09
2018-06-01T13:14:23.622Z,99563.96
2018-06-01T13:16:51.100Z,99568.42
2018-06-01T13:19:18.572Z,99560.22
2018-06-01T13:21:46.049Z,99564.05
2018-06-01T13:24:13.522Z,99574.58
2018-06-01T13:26:41.028Z,99568.55
2018-06-01T13:29:08.512Z,99569.45
2018-06-01T13:31:36.023Z,99563.42
2018-06-01T13:34:03.547Z,99564.64
2018-06-01T13:36:31.115Z,99561.79
2018-06-01T13:38:58.591Z,99551.03
2018-06-01T13:41:26.091Z,99540.53
2018-06-01T13:43:53.589Z,99542.88
2018-06-01T13:46:21.123Z,99533.73
2018-06-01T13:48:48.585Z,99532.78
2018-06-01T13:51:16.088Z,99527.78
2018-06-01T13:53:43.575Z,99520.46
2018-06-01T13:56:11.035Z,99522.80
2018-06-01T13:58:38.516Z,99510.73
2018-06-01T14:01:06.027Z,99507.34
2018-06-01T14:03:33.498Z,99519.67
2018-06-01T14:06:01.003Z,99506.14
2018-06-01T14:08:28.499Z,99508.23
2018-06-01T14:10:55.987Z,99502.51
2018-06-01T14:13:23.463Z,99497.38
2018-06-01T14:15:50.958Z,99494.82
2018-06-01T14:18:18.423Z,99488.77
2018-06-01T14:20:45.915Z,99488.59
2018-06-01T14:23:13.381Z,99487.20
2018-06-01T14:25:40.854Z,99480.70
2018-06-01T14:28:08.391Z,99478.52
2018-06-01T14:30:35.882Z,99474.50
2018-06-01T14:33:03.360Z,99483.58
2018-06-01T14:35:30.834Z,99478.66
2018-06-01T14:37:58.284Z,99469.83
2018-06-01T14:40:25.766Z,99467.75
2018-06-01T14:42:53.245Z,99471.60
2018-06-01T14:45:20.706Z,99466.84
2018-06-01T14:47:48.163Z,99464.17
2018-06-01T14:50:15.662Z,99473.16
2018-06-01T14:52:43.210Z,99470.84
2018-06-01T14:55:10.686Z,99468.64
2018-06-01T14:57:38.170Z,99471.29
2018-06-01T15:00:05.640Z,99475.55
2018-06-01T15:02:33.129Z,99482.06
2018-06-01T15:05:00.640Z,99482.03
2018-06-01T15:07:28.115Z,99489.45
2018-06-01T15:09:55.584Z,99493.77
2018-06-01T15:12:23.071Z,99493.45
2018-06-01T15:14:50.536Z,99498.03
2018-06-01T15:17:18.014Z,99500.70
2018-06-01T15:19:45.518Z,99506.13
2018-06-01T15:22:12.981Z,99511.49
2018-06-01T15:24:40.439Z,99511.09
2018-06-01T15:27:07.961Z,99508.14
2018-06-01T15:29:35.527Z,99515.66
2018-06-01T15:32:03.048Z,99508.52
2018-06-01T15:34:30.543Z,99505.41
2018-06-01T15:36:58.034Z,99503.33
2018-06-01T15:39:25.535Z,99500.80
2018-06-01T15:41:53.020Z,99504.41
2018-06-01T15:44:20.475Z,99504.77
2018-06-01T15:46:47.955Z,99505.18
2018-06-01T15:49:15.453Z,99500.72
2018-06-01T15:51:42.956Z,99500.41
2018-06-01T15:54:10.413Z,99499.47
2018-06-01T15:56:37.918Z,99496.88
2018-06-01T15:59:05.414Z,99491.36
2018-06-01T16:01:32.881Z,99491.89
2018-06-01T16:04:00.368Z,99485.05
2018-06-01T16:06:27.899Z,99481.28
2018-06-01T16:08:55.346Z,99478.42
2018-06-01T16:11:22.866Z,99467.75
2018-06-01T16:13:50.391Z,99458.02
2018-06-01T16:16:17.867Z,99453.45
2018-06-01T16:18:45.387Z,99455.30
2018-06-01T16:21:12.865Z,99452.24
2018-06-01T16:23:40.323Z,99457.72
2018-06-01T16:26:07.779Z,99455.13
2018-06-01T16:28:35.257Z,99461.94
2018-06-01T16:31:02.702Z,99456.91
2018-06-01T16:33:30.223Z,99455.73
2018-06-01T16:35:57.709Z,99462.15
2018-06-01T16:38:25.179Z,99471.52
2018-06-01T16:40:52.657Z,99469.72
2018-06-01T16:43:20.098Z,99471.27
2018-06-01T16:45:47.603Z,99475.23
2018-06-01T16:48:15.061Z,99473.99
2018-06-01T16:50:42.670Z,99483.05
2018-06-01T16:53:10.178Z,99484.39
2018-06-01T16:55:37.694Z,99485.77
2018-06-01T16:58:05.159Z,99495.34
2018-06-01T17:00:32.600Z,99499.84
2018-06-01T17:03:00.070Z,99497.16
2018-06-01T17:05:27.550Z,99504.24
2018-06-01T17:07:55.007Z,99498.14
2018-06-01T17:10:22.522Z,99498.15
2018-06-01T17:12:49.974Z,99502.02
2018-06-01T17:15:17.460Z,99502.70
2018-06-01T17:17:44.979Z,99505.25
2018-06-01T17:20:12.432Z,99511.82
2018-06-01T17:22:39.900Z,99510.41
2018-06-01T17:25:07.370Z,99514.16
2018-06-01T17:27:34.872Z,99501.84
2018-06-01T17:30:02.378Z,99511.09
2018-06-01T17:32:29.848Z,99502.61
2018-06-01T17:34:57.310Z,99503.78
2018-06-01T17:37:24.763Z,99507.71
2018-06-01T17:39:52.686Z,99510.88
2018-06-01T17:42:20.178Z,99502.37
2018-06-01T17:44:47.634Z,99511.30
2018-06-01T17:47:15.117Z,99509.64
2018-06-01T17:49:42.607Z,99515.92
2018-06-01T17:52:10.139Z,99512.48
2018-06-01T17:54:37.704Z,99509.59
2018-06-01T17:57:05.159Z,99510.92
2018-06-01T17:59:32.610Z,99509.20
2018-06-01T18:02:00.201Z,99505.73
2018-06-01T18:04:27.666Z,99510.42
2018-06-01T18:06:55.168Z,99515.20
2018-06-01T18:09:23.158Z,99516.12
2018-06-01T18:11:51.403Z,99509.20
2018-06-01T18:14:18.945Z,99515.48
2018-06-01T18:16:49.516Z,99508.07
2018-06-01T18:19:16.975Z,99512.00
2018-06-01T18:21:44.469Z,99513.55
2018-06-01T18:24:11.987Z,99509.01
2018-06-01T18:26:39.497Z,99509.61
2018-06-01T18:29:07.018Z,99510.42
2018-06-01T18:31:34.493Z,99515.47
2018-06-01T18:34:01.960Z,99510.36
2018-06-01T18:36:29.420Z,99516.20
2018-06-01T18:38:56.944Z,99510.63
2018-06-01T18:41:24.493Z,99509.02
2018-06-01T18:43:52.569Z,99506.26
2018-06-01T18:46:22.266Z,99510.41
2018-06-01T18:48:49.863Z,99514.33
2018-06-01T18:51:17.356Z,99519.00
2018-06-01T18:53:44.901Z,99518.58
2018-06-01T18:56:12.432Z,99510.75
2018-06-01T18:58:40.905Z,99510.16
2018-06-01T19:01:08.582Z,99516.76
2018-06-01T19:03:36.119Z,99520.41
2018-06-01T19:06:04.932Z,99516.97
2018-06-01T19:08:32.409Z,99519.44
2018-06-01T19:10:59.917Z,99528.03
2018-06-01T19:13:28.659Z,99535.69
2018-06-01T19:15:56.184Z,99532.34
2018-06-01T19:18:24.408Z,99529.91
2018-06-01T19:20:51.877Z,99534.59
2018-06-01T19:23:20.235Z,99534.84
2018-06-01T19:25:47.761Z,99543.20
2018-06-01T19:28:15.704Z,99538.27
2018-06-01T19:30:43.223Z,99549.52
2018-06-01T19:33:10.707Z,99551.50
2018-06-01T19:35:38.178Z,99548.68
2018-06-01T19:38:05.679Z,99547.51
2018-06-01T19:40:33.212Z,99546.32
2018-06-01T19:43:00.737Z,99543.55
2018-06-01T19:45:28.259Z,99548.14
2018-06-01T19:47:55.830Z,99547.05
2018-06-01T19:50:23.363Z,99544.13
2018-06-01T19:52:50.867Z,99553.53
2018-06-01T19:55:20.116Z,99559.50
2018-06-01T19:57:49.539Z,99564.19
2018-06-01T20:00:17.374Z,99570.96
2018-06-01T20:02:44.968Z,99566.16
2018-06-01T20:05:12.935Z,99570.19
2018-06-01T20:07:40.451Z,99572.00
2018-06-01T20:10:07.963Z,99567.61
2018-06-01T20:12:35.823Z,99571.28
2018-06-01T20:15:03.358Z,99564.95
2018-06-01T20:17:30.847Z,99570.36
2018-06-01T20:19:58.307Z,99570.42
2018-06-01T20:22:25.860Z,99574.23
2018-06-01T20:24:53.407Z,99571.14
2018-06-01T20:27:20.931Z,99574.08
2018-06-01T20:29:49.205Z,99576.63
2018-06-01T20:32:16.623Z,99567.13
2018-06-01T20:34:44.896Z,99568.83
2018-06-01T20:37:12.425Z,99566.76
2018-06-01T20:39:39.904Z,99567.94
2018-06-01T20:42:07.439Z,99565.69
2018-06-01T20:44:34.924Z,99569.65
2018-06-01T20:47:02.504Z,99566.02
2018-06-01T20:49:30.089Z,99571.48
2018-06-01T20:51:57.785Z,99565.45
2018-06-01T20:54:25.270Z,99569.81
2018-06-01T20:56:52.779Z,99566.60
2018-06-01T20:59:20.342Z,99572.63
2018-06-01T21:01:47.848Z,99574.25
2018-06-01T21:04:15.688Z,99567.37
2018-06-01T21:06:43.371Z,99562.25
2018-06-01T21:09:10.975Z,99569.75
2018-06-01T21:11:38.656Z,99569.57
2018-06-01T21:14:06.245Z,99574.70
2018-06-01T21:16:34.624Z,99582.31
2018-06-01T21:19:02.077Z,99582.78
2018-06-01T21:21:29.557Z,99580.77
2018-06-01T21:23:57.318Z,99576.94
2018-06-01T21:26:24.781Z,99583.89
2018-06-01T21:28:53.451Z,99579.14
2018-06-01T21:31:20.954Z,99575.80
2018-06-01T21:33:48.443Z,99576.52
2018-06-01T21:36:15.972Z,99577.86
2018-06-01T21:38:43.502Z,99582.38
2018-06-01T21:41:10.967Z,99582.81
2018-06-01T21:43:38.490Z,99592.83
2018-06-01T21:46:05.989Z,99599.77
2018-06-01T21:48:33.491Z,99603.11
2018-06-01T21:51:00.966Z,99603.34
2018-06-01T21:53:28.444Z,99604.98
2018-06-01T21:55:59.980Z,99607.81
2018-06-01T21:58:27.534Z,99606.88
2018-06-01T22:00:55.162Z,99613.05
2018-06-01T22:03:23.499Z,99613.71
2018-06-01T22:05:51.072Z,99609.38
2018-06-01T22:08:18.612Z,99608.55
2018-06-01T22:10:46.091Z,99601.72
2018-06-01T22:13:13.575Z,99603.89
2018-06-01T22:15:41.034Z,99600.63
2018-06-01T22:18:11.641Z,99600.94
2018-06-01T22:20:39.222Z,99596.83
2018-06-01T22:23:06.755Z,99597.41
2018-06-01T22:25:35.071Z,99594.72
2018-06-01T22:28:05.057Z,99600.06
2018-06-01T22:30:32.527Z,99596.06
2018-06-01T22:33:00.262Z,99589.78
2018-06-01T22:35:27.764Z,99593.12
2018-06-01T22:37:55.917Z,99590.45
2018-06-01T22:40:23.763Z,99591.36
2018-06-01T22:42:51.276Z,99589.05
2018-06-01T22:45:19.076Z,99593.18
2018-06-01T22:47:46.947Z,99591.25
2018-06-01T22:50:14.452Z,99593.86
2018-06-01T22:52:42.555Z,99590.52
2018-06-01T22:55:10.040Z,99591.33
2018-06-01T22:57:37.531Z,99600.45
2018-06-01T23:00:05.029Z,99596.84
2018-06-01T23:02:32.498Z,99600.95
2018-06-01T23:05:00.015Z,99606.19
2018-06-01T23:07:27.563Z,99607.43
2018-06-01T23:09:55.110Z,99605.22
2018-06-01T23:12:22.592Z,99608.88
2018-06-01T23:14:50.168Z,99608.91
2018-06-01T23:17:17.690Z,99610.84
2018-06-01T23:19:45.259Z,99607.05
2018-06-01T23:22:12.715Z,99601.28
2018-06-01T23:24:40.181Z,99601.20
2018-06-01T23:27:07.684Z,99601.48
2018-06-01T23:29:35.148Z,99600.14
2018-06-01T23:32:02.632Z,99596.23
2018-06-01T23:34:30.122Z,99599.26
2018-06-01T23:36:57.626Z,99603.08
2018-06-01T23:39:25.085Z,99596.42
2018-06-01T23:41:52.575Z,99592.67
2018-06-01T23:44:20.040Z,99594.08
2018-06-01T23:46:47.532Z,99594.69
2018-06-01T23:49:15.010Z,99595.66
2018-06-01T23:51:42.466Z,99597.98
2018-06-01T23:54:09.927Z,99605.13
2018-06-01T23:56:37.455Z,99604.43
2018-06-01T23:59:04.942Z,99601.14
